Westview, Kentucky
Current Conditions -  °F | °C
As of 11:31 AM on Sunday 23 Nov 2014 (Local Time) from KFTK Reporting Station
Light Rain Light Rain  
Wind Chill: 59°   Ceiling: 4500
Heat Index: 59°   Visibility: 8mi
Dew Point: 48°   Wind: 15mph
Humidity: 67%   Direction: 120°ESE
Pressure: 29.73"   Gusts: NA
Location:  37.7°N, 86.41°W
Report Text: KFTK 231731Z AUTO 12013KT 8SM -RA BKN045 15/09 A2973 RMK AO2
Loading
Personal Weather Stations






























Interactive Weather Map New forecast layout! Learn more

10-Day Weather Forecast

Advertisements
Track Severe Weather on mobile